sensor_id;sensor_type;location;lat;lon;timestamp;pressure;altitude;pressure_sealevel;temperature;humidity
50484;BME280;36409;52.168;20.878;2023-12-22T00:02:59;96762.95;;;3.64;85.47
50484;BME280;36409;52.168;20.878;2023-12-22T00:07:08;96763.08;;;3.61;85.19
50484;BME280;36409;52.168;20.878;2023-12-22T00:11:15;96776.13;;;3.58;85.43
50484;BME280;36409;52.168;20.878;2023-12-22T00:14:39;96777.16;;;3.53;85.50
50484;BME280;36409;52.168;20.878;2023-12-22T00:17:52;96781.69;;;3.48;85.56
50484;BME280;36409;52.168;20.878;2023-12-22T00:21:09;96780.91;;;3.46;85.36
50484;BME280;36409;52.168;20.878;2023-12-22T00:24:50;96784.39;;;3.45;85.32
50484;BME280;36409;52.168;20.878;2023-12-22T00:28:06;96799.91;;;3.44;85.29
50484;BME280;36409;52.168;20.878;2023-12-22T00:31:51;96808.50;;;3.44;85.63
50484;BME280;36409;52.168;20.878;2023-12-22T00:43:15;96824.67;;;3.48;85.62
50484;BME280;36409;52.168;20.878;2023-12-22T00:54:35;96825.06;;;3.38;85.29
50484;BME280;36409;52.168;20.878;2023-12-22T00:58:41;96826.08;;;3.34;84.79
50484;BME280;36409;52.168;20.878;2023-12-22T01:02:21;96820.14;;;3.32;85.29
50484;BME280;36409;52.168;20.878;2023-12-22T01:09:17;96828.06;;;3.28;85.30
50484;BME280;36409;52.168;20.878;2023-12-22T01:12:37;96818.66;;;3.27;85.14
50484;BME280;36409;52.168;20.878;2023-12-22T01:16:10;96834.12;;;3.27;84.95
50484;BME280;36409;52.168;20.878;2023-12-22T01:23:45;96818.92;;;3.20;85.02
50484;BME280;36409;52.168;20.878;2023-12-22T01:26:50;96801.85;;;3.18;84.54
50484;BME280;36409;52.168;20.878;2023-12-22T01:29:19;96806.15;;;3.17;84.90
50484;BME280;36409;52.168;20.878;2023-12-22T01:31:49;96803.72;;;3.14;84.88
50484;BME280;36409;52.168;20.878;2023-12-22T01:34:18;96809.81;;;3.12;84.28
50484;BME280;36409;52.168;20.878;2023-12-22T01:36:48;96806.42;;;3.11;84.95
50484;BME280;36409;52.168;20.878;2023-12-22T01:39:18;96805.45;;;3.14;84.93
50484;BME280;36409;52.168;20.878;2023-12-22T01:41:50;96816.53;;;3.16;84.51
50484;BME280;36409;52.168;20.878;2023-12-22T01:44:21;96812.20;;;3.16;84.97
50484;BME280;36409;52.168;20.878;2023-12-22T01:46:51;96818.28;;;3.15;84.19
50484;BME280;36409;52.168;20.878;2023-12-22T01:49:22;96814.03;;;3.14;84.69
50484;BME280;36409;52.168;20.878;2023-12-22T01:51:53;96812.35;;;3.13;84.12
50484;BME280;36409;52.168;20.878;2023-12-22T01:54:27;96817.50;;;3.13;84.67
50484;BME280;36409;52.168;20.878;2023-12-22T01:56:56;96817.55;;;3.12;84.57
50484;BME280;36409;52.168;20.878;2023-12-22T01:59:26;96825.28;;;3.12;84.01
50484;BME280;36409;52.168;20.878;2023-12-22T02:01:57;96820.01;;;3.15;84.57
50484;BME280;36409;52.168;20.878;2023-12-22T02:04:28;96828.64;;;3.14;84.07
50484;BME280;36409;52.168;20.878;2023-12-22T02:07:01;96838.13;;;3.13;84.27
50484;BME280;36409;52.168;20.878;2023-12-22T02:09:31;96830.39;;;3.13;83.89
50484;BME280;36409;52.168;20.878;2023-12-22T02:12:00;96839.80;;;3.14;84.14
50484;BME280;36409;52.168;20.878;2023-12-22T02:14:29;96829.34;;;3.17;83.68
50484;BME280;36409;52.168;20.878;2023-12-22T02:17:05;96841.22;;;3.21;84.37
50484;BME280;36409;52.168;20.878;2023-12-22T02:19:43;96829.04;;;3.25;83.63
50484;BME280;36409;52.168;20.878;2023-12-22T02:22:15;96828.84;;;3.30;83.49
50484;BME280;36409;52.168;20.878;2023-12-22T02:24:44;96818.53;;;3.30;83.39
50484;BME280;36409;52.168;20.878;2023-12-22T02:27:24;96814.16;;;3.32;83.99
50484;BME280;36409;52.168;20.878;2023-12-22T02:30:02;96824.40;;;3.33;83.60
50484;BME280;36409;52.168;20.878;2023-12-22T02:32:42;96811.31;;;3.38;83.80
50484;BME280;36409;52.168;20.878;2023-12-22T02:35:16;96808.69;;;3.39;83.22
50484;BME280;36409;52.168;20.878;2023-12-22T02:37:49;96821.58;;;3.39;83.93
50484;BME280;36409;52.168;20.878;2023-12-22T02:40:20;96811.31;;;3.38;83.78
50484;BME280;36409;52.168;20.878;2023-12-22T02:42:50;96810.48;;;3.37;83.52
50484;BME280;36409;52.168;20.878;2023-12-22T02:45:20;96805.45;;;3.34;82.99
50484;BME280;36409;52.168;20.878;2023-12-22T02:47:51;96789.20;;;3.32;82.98
50484;BME280;36409;52.168;20.878;2023-12-22T02:50:27;96815.91;;;3.31;82.98
50484;BME280;36409;52.168;20.878;2023-12-22T02:52:56;96816.73;;;3.32;83.19
50484;BME280;36409;52.168;20.878;2023-12-22T02:55:26;96809.78;;;3.34;83.23
50484;BME280;36409;52.168;20.878;2023-12-22T02:57:55;96810.61;;;3.34;83.33
50484;BME280;36409;52.168;20.878;2023-12-22T03:00:25;96803.66;;;3.36;83.17
50484;BME280;36409;52.168;20.878;2023-12-22T03:02:54;96806.04;;;3.41;82.74
50484;BME280;36409;52.168;20.878;2023-12-22T03:05:26;96814.48;;;3.45;83.14
50484;BME280;36409;52.168;20.878;2023-12-22T03:07:58;96805.02;;;3.45;82.87
50484;BME280;36409;52.168;20.878;2023-12-22T03:10:33;96817.91;;;3.45;82.88
50484;BME280;36409;52.168;20.878;2023-12-22T03:13:02;96817.95;;;3.44;82.47
50484;BME280;36409;52.168;20.878;2023-12-22T03:15:31;96811.20;;;3.41;82.15
50484;BME280;36409;52.168;20.878;2023-12-22T03:18:01;96825.06;;;3.38;82.79
50484;BME280;36409;52.168;20.878;2023-12-22T03:20:31;96810.61;;;3.34;82.15
50484;BME280;36409;52.168;20.878;2023-12-22T03:23:00;96809.91;;;3.31;82.01
50484;BME280;36409;52.168;20.878;2023-12-22T03:25:29;96806.55;;;3.29;82.07
50484;BME280;36409;52.168;20.878;2023-12-22T03:27:58;96798.11;;;3.25;82.18
50484;BME280;36409;52.168;20.878;2023-12-22T03:30:27;96800.80;;;3.22;82.65
50484;BME280;36409;52.168;20.878;2023-12-22T03:32:56;96806.11;;;3.19;81.72
50484;BME280;36409;52.168;20.878;2023-12-22T03:35:26;96810.41;;;3.18;82.05
50484;BME280;36409;52.168;20.878;2023-12-22T03:37:57;96815.71;;;3.15;82.46
50484;BME280;36409;52.168;20.878;2023-12-22T03:40:27;96815.71;;;3.15;82.13
50484;BME280;36409;52.168;20.878;2023-12-22T03:42:56;96815.83;;;3.12;82.27
50484;BME280;36409;52.168;20.878;2023-12-22T03:45:25;96809.89;;;3.10;81.58
50484;BME280;36409;52.168;20.878;2023-12-22T03:47:53;96808.28;;;3.07;81.61
50484;BME280;36409;52.168;20.878;2023-12-22T03:50:25;96807.43;;;3.07;82.47
50484;BME280;36409;52.168;20.878;2023-12-22T03:52:56;96815.23;;;3.05;81.64
50484;BME280;36409;52.168;20.878;2023-12-22T03:55:28;96804.07;;;3.05;81.76
50484;BME280;36409;52.168;20.878;2023-12-22T03:57:59;96802.42;;;3.04;82.36
50484;BME280;36409;52.168;20.878;2023-12-22T04:00:34;96796.41;;;3.03;81.56
50484;BME280;36409;52.168;20.878;2023-12-22T04:03:06;96802.34;;;3.05;81.61
50484;BME280;36409;52.168;20.878;2023-12-22T04:05:35;96810.91;;;3.06;81.50
50484;BME280;36409;52.168;20.878;2023-12-22T04:08:07;96814.37;;;3.05;81.64
50484;BME280;36409;52.168;20.878;2023-12-22T04:10:38;96808.40;;;3.04;82.05
50484;BME280;36409;52.168;20.878;2023-12-22T04:13:07;96808.47;;;3.03;82.29
50484;BME280;36409;52.168;20.878;2023-12-22T04:15:37;96791.27;;;3.03;81.66
50484;BME280;36409;52.168;20.878;2023-12-22T04:18:06;96803.36;;;3.01;82.26
50484;BME280;36409;52.168;20.878;2023-12-22T04:20:35;96805.11;;;3.01;81.49
50484;BME280;36409;52.168;20.878;2023-12-22T04:23:04;96812.06;;;2.99;82.16
50484;BME280;36409;52.168;20.878;2023-12-22T04:25:35;96818.11;;;2.98;81.76
50484;BME280;36409;52.168;20.878;2023-12-22T04:28:05;96816.44;;;2.97;81.32
50484;BME280;36409;52.168;20.878;2023-12-22T04:30:34;96797.58;;;2.96;81.58
50484;BME280;36409;52.168;20.878;2023-12-22T04:33:04;96819.98;;;2.94;81.27
50484;BME280;36409;52.168;20.878;2023-12-22T04:35:34;96808.89;;;2.92;81.12
50484;BME280;36409;52.168;20.878;2023-12-22T04:38:03;96815.80;;;2.91;81.37
50484;BME280;36409;52.168;20.878;2023-12-22T04:40:35;96803.85;;;2.89;81.29
50484;BME280;36409;52.168;20.878;2023-12-22T04:43:08;96822.85;;;2.86;81.36
50484;BME280;36409;52.168;20.878;2023-12-22T04:45:40;96831.55;;;2.84;81.06
50484;BME280;36409;52.168;20.878;2023-12-22T04:48:09;96828.19;;;2.82;81.22
50484;BME280;36409;52.168;20.878;2023-12-22T04:50:39;96834.31;;;2.79;81.23
50484;BME280;36409;52.168;20.878;2023-12-22T04:53:09;96834.42;;;2.76;81.35
50484;BME280;36409;52.168;20.878;2023-12-22T04:55:38;96846.88;;;2.65;81.32
50484;BME280;36409;52.168;20.878;2023-12-22T04:58:12;96849.98;;;2.51;81.10
50484;BME280;36409;52.168;20.878;2023-12-22T05:00:44;96867.77;;;2.33;80.91
50484;BME280;36409;52.168;20.878;2023-12-22T05:03:19;96858.95;;;2.16;80.87
50484;BME280;36409;52.168;20.878;2023-12-22T05:05:51;96853.45;;;2.02;80.60
50484;BME280;36409;52.168;20.878;2023-12-22T05:08:23;96853.72;;;1.94;80.24
50484;BME280;36409;52.168;20.878;2023-12-22T05:10:52;96863.28;;;1.91;80.43
50484;BME280;36409;52.168;20.878;2023-12-22T05:13:22;96869.37;;;1.88;81.53
50484;BME280;36409;52.168;20.878;2023-12-22T05:15:51;96872.91;;;1.85;81.59
50484;BME280;36409;52.168;20.878;2023-12-22T05:18:20;96853.09;;;1.88;80.63
50484;BME280;36409;52.168;20.878;2023-12-22T05:20:53;96848.80;;;1.88;81.70
50484;BME280;36409;52.168;20.878;2023-12-22T05:23:22;96860.77;;;1.89;81.76
50484;BME280;36409;52.168;20.878;2023-12-22T05:25:51;96859.09;;;1.88;81.59
50484;BME280;36409;52.168;20.878;2023-12-22T05:28:23;96860.77;;;1.89;81.85
50484;BME280;36409;52.168;20.878;2023-12-22T05:30:53;96872.78;;;1.89;81.20
50484;BME280;36409;52.168;20.878;2023-12-22T05:33:22;96864.23;;;1.88;81.91
50484;BME280;36409;52.168;20.878;2023-12-22T05:35:55;96861.66;;;1.88;81.15
50484;BME280;36409;52.168;20.878;2023-12-22T05:38:27;96871.89;;;1.90;82.00
50484;BME280;36409;52.168;20.878;2023-12-22T05:40:56;96884.72;;;1.91;81.16
50484;BME280;36409;52.168;20.878;2023-12-22T05:43:28;96873.50;;;1.92;81.59
50484;BME280;36409;52.168;20.878;2023-12-22T05:45:57;96881.19;;;1.94;82.11
50484;BME280;36409;52.168;20.878;2023-12-22T05:48:27;96883.76;;;1.94;82.01
50484;BME280;36409;52.168;20.878;2023-12-22T05:50:57;96877.77;;;1.93;82.17
50484;BME280;36409;52.168;20.878;2023-12-22T05:53:26;96883.70;;;1.95;81.21
50484;BME280;36409;52.168;20.878;2023-12-22T05:55:59;96894.84;;;1.96;82.19
50484;BME280;36409;52.168;20.878;2023-12-22T05:58:29;96887.06;;;1.97;82.10
50484;BME280;36409;52.168;20.878;2023-12-22T06:01:01;96878.35;;;2.02;82.01
50484;BME280;36409;52.168;20.878;2023-12-22T06:03:30;96892.90;;;2.03;82.06
50484;BME280;36409;52.168;20.878;2023-12-22T06:06:00;96884.22;;;2.05;81.28
50484;BME280;36409;52.168;20.878;2023-12-22T06:08:42;96889.30;;;2.07;81.87
50484;BME280;36409;52.168;20.878;2023-12-22T06:11:11;96902.95;;;2.09;81.37
50484;BME280;36409;52.168;20.878;2023-12-22T06:13:42;96904.55;;;2.13;81.89
50484;BME280;36409;52.168;20.878;2023-12-22T06:16:13;96896.76;;;2.14;81.52
50484;BME280;36409;52.168;20.878;2023-12-22T06:18:45;96904.48;;;2.14;81.56
50484;BME280;36409;52.168;20.878;2023-12-22T06:21:14;96894.12;;;2.16;82.23
50484;BME280;36409;52.168;20.878;2023-12-22T06:23:43;96905.14;;;2.20;81.28
50484;BME280;36409;52.168;20.878;2023-12-22T06:26:12;96890.48;;;2.22;82.11
50484;BME280;36409;52.168;20.878;2023-12-22T06:28:42;96920.38;;;2.26;81.72
50484;BME280;36409;52.168;20.878;2023-12-22T06:31:18;96922.88;;;2.27;81.24
50484;BME280;36409;52.168;20.878;2023-12-22T06:33:55;96924.56;;;2.28;81.85
50484;BME280;36409;52.168;20.878;2023-12-22T06:36:29;96927.11;;;2.30;81.09
50484;BME280;36409;52.168;20.878;2023-12-22T06:39:03;96926.19;;;2.31;81.19
50484;BME280;36409;52.168;20.878;2023-12-22T06:41:36;96921.79;;;2.35;81.57
50484;BME280;36409;52.168;20.878;2023-12-22T06:44:06;96934.59;;;2.36;81.38
50484;BME280;36409;52.168;20.878;2023-12-22T06:46:39;96934.53;;;2.38;81.61
50484;BME280;36409;52.168;20.878;2023-12-22T06:49:15;96927.66;;;2.38;80.87
50484;BME280;36409;52.168;20.878;2023-12-22T06:51:45;96931.03;;;2.40;80.85
50484;BME280;36409;52.168;20.878;2023-12-22T06:54:28;96943.05;;;2.40;81.19
50484;BME280;36409;52.168;20.878;2023-12-22T06:56:59;96943.11;;;2.38;80.93
50484;BME280;36409;52.168;20.878;2023-12-22T06:59:31;96954.23;;;2.39;81.13
50484;BME280;36409;52.168;20.878;2023-12-22T07:02:02;96953.41;;;2.38;80.89
50484;BME280;36409;52.168;20.878;2023-12-22T07:05:02;96949.22;;;2.36;80.19
50484;BME280;36409;52.168;20.878;2023-12-22T07:07:33;96962.19;;;2.33;80.01
50484;BME280;36409;52.168;20.878;2023-12-22T07:10:09;96971.62;;;2.32;79.77
50484;BME280;36409;52.168;20.878;2023-12-22T07:12:40;96971.62;;;2.32;80.68
50484;BME280;36409;52.168;20.878;2023-12-22T07:15:11;96971.62;;;2.32;79.74
50484;BME280;36409;52.168;20.878;2023-12-22T07:17:40;96971.62;;;2.32;80.60
50484;BME280;36409;52.168;20.878;2023-12-22T07:20:13;96967.33;;;2.33;80.40
50484;BME280;36409;52.168;20.878;2023-12-22T07:22:45;96970.80;;;2.31;80.12
50484;BME280;36409;52.168;20.878;2023-12-22T07:25:18;96967.33;;;2.33;79.39
50484;BME280;36409;52.168;20.878;2023-12-22T07:27:48;96971.52;;;2.35;79.86
50484;BME280;36409;52.168;20.878;2023-12-22T07:30:20;96976.58;;;2.38;79.29
50484;BME280;36409;52.168;20.878;2023-12-22T07:32:51;96982.45;;;2.42;79.23
50484;BME280;36409;52.168;20.878;2023-12-22T07:35:22;96975.52;;;2.44;79.96
50484;BME280;36409;52.168;20.878;2023-12-22T07:37:52;96985.65;;;2.49;78.93
50484;BME280;36409;52.168;20.878;2023-12-22T07:40:25;96991.53;;;2.52;79.10
50484;BME280;36409;52.168;20.878;2023-12-22T07:42:54;97001.76;;;2.54;78.72
50484;BME280;36409;52.168;20.878;2023-12-22T07:45:28;97010.44;;;2.51;79.16
50484;BME280;36409;52.168;20.878;2023-12-22T07:48:00;97012.35;;;2.46;78.55
50484;BME280;36409;52.168;20.878;2023-12-22T07:50:30;97003.88;;;2.42;78.88
50484;BME280;36409;52.168;20.878;2023-12-22T07:53:00;97009.97;;;2.40;78.96
50484;BME280;36409;52.168;20.878;2023-12-22T07:55:35;97005.72;;;2.39;78.88
50484;BME280;36409;52.168;20.878;2023-12-22T07:58:07;97007.47;;;2.38;78.16
50484;BME280;36409;52.168;20.878;2023-12-22T08:00:39;97005.84;;;2.36;78.55
50484;BME280;36409;52.168;20.878;2023-12-22T08:03:11;97006.67;;;2.36;77.79
50484;BME280;36409;52.168;20.878;2023-12-22T08:05:40;97011.00;;;2.36;77.83
50484;BME280;36409;52.168;20.878;2023-12-22T08:08:13;97012.65;;;2.37;77.77
50484;BME280;36409;52.168;20.878;2023-12-22T08:10:44;97019.48;;;2.38;77.97
50484;BME280;36409;52.168;20.878;2023-12-22T08:13:13;97013.44;;;2.39;78.40
50484;BME280;36409;52.168;20.878;2023-12-22T08:15:43;97016.08;;;2.37;78.22
50484;BME280;36409;52.168;20.878;2023-12-22T08:18:12;97016.08;;;2.37;78.29
50484;BME280;36409;52.168;20.878;2023-12-22T08:20:42;97028.09;;;2.37;77.71
50484;BME280;36409;52.168;20.878;2023-12-22T08:23:15;97020.44;;;2.35;77.36
50484;BME280;36409;52.168;20.878;2023-12-22T08:25:45;97028.16;;;2.35;77.46
50484;BME280;36409;52.168;20.878;2023-12-22T08:28:19;97041.03;;;2.35;77.67
50484;BME280;36409;52.168;20.878;2023-12-22T08:30:49;97034.92;;;2.38;77.07
50484;BME280;36409;52.168;20.878;2023-12-22T08:33:19;97041.76;;;2.39;77.87
50484;BME280;36409;52.168;20.878;2023-12-22T08:35:49;97034.83;;;2.41;77.83
50484;BME280;36409;52.168;20.878;2023-12-22T08:38:22;97039.91;;;2.42;77.02
50484;BME280;36409;52.168;20.878;2023-12-22T08:40:54;97051.00;;;2.44;77.01
50484;BME280;36409;52.168;20.878;2023-12-22T08:43:28;97054.38;;;2.46;77.47
50484;BME280;36409;52.168;20.878;2023-12-22T08:45:59;97045.70;;;2.49;77.04
50484;BME280;36409;52.168;20.878;2023-12-22T08:48:41;97046.65;;;2.46;77.37
50484;BME280;36409;52.168;20.878;2023-12-22T08:51:13;97056.85;;;2.50;77.23
50484;BME280;36409;52.168;20.878;2023-12-22T08:53:45;97047.34;;;2.52;77.07
50484;BME280;36409;52.168;20.878;2023-12-22T08:56:15;97048.08;;;2.55;77.53
50484;BME280;36409;52.168;20.878;2023-12-22T08:58:45;97052.20;;;2.59;77.45
50484;BME280;36409;52.168;20.878;2023-12-22T09:01:27;97044.37;;;2.62;77.61
50484;BME280;36409;52.168;20.878;2023-12-22T09:03:58;97055.31;;;2.69;76.96
50484;BME280;36409;52.168;20.878;2023-12-22T09:06:28;97047.25;;;2.78;77.60
50484;BME280;36409;52.168;20.878;2023-12-22T09:08:59;97040.59;;;2.97;76.95
50484;BME280;36409;52.168;20.878;2023-12-22T09:11:36;97047.67;;;3.15;77.37
50484;BME280;36409;52.168;20.878;2023-12-22T09:14:06;97036.05;;;3.27;76.62
50484;BME280;36409;52.168;20.878;2023-12-22T09:16:39;97030.72;;;3.32;76.57
50484;BME280;36409;52.168;20.878;2023-12-22T09:19:09;97020.33;;;3.33;77.46
50484;BME280;36409;52.168;20.878;2023-12-22T09:21:40;97022.02;;;3.34;76.52
50484;BME280;36409;52.168;20.878;2023-12-22T09:24:15;97013.39;;;3.35;77.12
50484;BME280;36409;52.168;20.878;2023-12-22T09:26:52;97011.59;;;3.37;76.27
50484;BME280;36409;52.168;20.878;2023-12-22T09:29:26;97022.41;;;3.47;76.65
50484;BME280;36409;52.168;20.878;2023-12-22T09:31:55;97018.75;;;3.53;76.02
50484;BME280;36409;52.168;20.878;2023-12-22T09:34:26;97016.03;;;3.56;76.25
50484;BME280;36409;52.168;20.878;2023-12-22T09:36:55;97007.16;;;3.63;76.16
50484;BME280;36409;52.168;20.878;2023-12-22T09:39:28;97002.34;;;3.76;76.33
50484;BME280;36409;52.168;20.878;2023-12-22T09:41:58;96989.73;;;3.91;76.00
50484;BME280;36409;52.168;20.878;2023-12-22T09:44:32;96983.91;;;4.06;76.07
50484;BME280;36409;52.168;20.878;2023-12-22T09:47:04;96977.34;;;4.20;75.91
50484;BME280;36409;52.168;20.878;2023-12-22T09:49:37;96973.61;;;4.27;76.16
50484;BME280;36409;52.168;20.878;2023-12-22T09:52:10;96954.11;;;4.20;75.96
50484;BME280;36409;52.168;20.878;2023-12-22T09:54:43;96956.30;;;4.08;75.75
50484;BME280;36409;52.168;20.878;2023-12-22T09:57:13;96961.03;;;3.98;75.47
50484;BME280;36409;52.168;20.878;2023-12-22T09:59:56;96953.72;;;3.88;75.74
50484;BME280;36409;52.168;20.878;2023-12-22T10:02:28;96941.13;;;3.80;75.84
50484;BME280;36409;52.168;20.878;2023-12-22T10:04:59;96923.46;;;3.70;75.25
50484;BME280;36409;52.168;20.878;2023-12-22T10:07:30;96933.30;;;3.61;75.18
50484;BME280;36409;52.168;20.878;2023-12-22T10:10:04;97049.02;;;3.48;75.62
50484;BME280;36409;52.168;20.878;2023-12-22T10:12:34;97051.45;;;3.05;74.44
50484;BME280;36409;52.168;20.878;2023-12-22T10:15:08;97045.92;;;2.43;73.40
50484;BME280;36409;52.168;20.878;2023-12-22T10:17:38;97048.55;;;1.89;72.96
50484;BME280;36409;52.168;20.878;2023-12-22T10:20:09;97059.31;;;1.45;72.98
50484;BME280;36409;52.168;20.878;2023-12-22T10:22:39;97067.13;;;1.12;73.54
50484;BME280;36409;52.168;20.878;2023-12-22T10:25:09;97078.27;;;0.81;74.37
50484;BME280;36409;52.168;20.878;2023-12-22T10:27:42;97077.19;;;0.57;74.76
50484;BME280;36409;52.168;20.878;2023-12-22T10:30:13;97074.23;;;0.39;74.90
50484;BME280;36409;52.168;20.878;2023-12-22T10:32:46;97081.53;;;0.22;74.59
50484;BME280;36409;52.168;20.878;2023-12-22T10:35:21;97076.65;;;0.11;74.58
50484;BME280;36409;52.168;20.878;2023-12-22T10:37:52;97079.39;;;0.03;74.88
50484;BME280;36409;52.168;20.878;2023-12-22T10:40:24;97074.43;;;-0.03;75.80
50484;BME280;36409;52.168;20.878;2023-12-22T10:42:54;97072.87;;;-0.10;76.04
50484;BME280;36409;52.168;20.878;2023-12-22T10:45:25;97064.46;;;-0.16;75.77
50484;BME280;36409;52.168;20.878;2023-12-22T10:47:55;97062.84;;;-0.20;76.30
50484;BME280;36409;52.168;20.878;2023-12-22T10:50:28;97062.89;;;-0.21;75.70
50484;BME280;36409;52.168;20.878;2023-12-22T10:52:58;97044.88;;;-0.18;75.67
50484;BME280;36409;52.168;20.878;2023-12-22T10:55:28;97021.70;;;-0.15;75.77
50484;BME280;36409;52.168;20.878;2023-12-22T10:58:02;97016.45;;;-0.10;75.62
50484;BME280;36409;52.168;20.878;2023-12-22T11:00:38;97003.44;;;-0.01;76.55
50484;BME280;36409;52.168;20.878;2023-12-22T11:03:16;97003.90;;;0.13;76.95
50484;BME280;36409;52.168;20.878;2023-12-22T11:05:47;96990.75;;;0.26;76.89
50484;BME280;36409;52.168;20.878;2023-12-22T11:08:17;96982.66;;;0.41;77.10
50484;BME280;36409;52.168;20.878;2023-12-22T11:10:58;96981.59;;;0.49;77.11
50484;BME280;36409;52.168;20.878;2023-12-22T11:13:29;96975.50;;;0.53;76.44
50484;BME280;36409;52.168;20.878;2023-12-22T11:16:03;96978.14;;;0.50;77.06
50484;BME280;36409;52.168;20.878;2023-12-22T11:18:35;96968.89;;;0.44;77.13
50484;BME280;36409;52.168;20.878;2023-12-22T11:21:10;96962.00;;;0.46;76.54
50484;BME280;36409;52.168;20.878;2023-12-22T11:23:42;96967.67;;;0.57;76.33
50484;BME280;36409;52.168;20.878;2023-12-22T11:26:14;96970.05;;;0.64;77.14
50484;BME280;36409;52.168;20.878;2023-12-22T11:28:45;96964.14;;;0.61;77.35
50484;BME280;36409;52.168;20.878;2023-12-22T11:31:16;96962.45;;;0.60;77.26
50484;BME280;36409;52.168;20.878;2023-12-22T11:33:47;96961.44;;;0.66;76.47
50484;BME280;36409;52.168;20.878;2023-12-22T11:36:33;96958.07;;;0.64;76.58
50484;BME280;36409;52.168;20.878;2023-12-22T11:39:03;96959.78;;;0.64;77.14
50484;BME280;36409;52.168;20.878;2023-12-22T11:41:35;96952.86;;;0.67;76.65
50484;BME280;36409;52.168;20.878;2023-12-22T11:44:07;96965.37;;;0.78;76.80
50484;BME280;36409;52.168;20.878;2023-12-22T11:46:38;96963.52;;;0.83;77.72
50484;BME280;36409;52.168;20.878;2023-12-22T11:49:12;96964.21;;;0.88;77.43
50484;BME280;36409;52.168;20.878;2023-12-22T11:51:50;96962.22;;;0.98;77.28
50484;BME280;36409;52.168;20.878;2023-12-22T11:54:51;96952.55;;;1.06;77.08
50484;BME280;36409;52.168;20.878;2023-12-22T11:57:33;96946.53;;;1.07;76.95
50484;BME280;36409;52.168;20.878;2023-12-22T12:00:07;96948.12;;;1.12;77.15
50484;BME280;36409;52.168;20.878;2023-12-22T12:02:42;96942.88;;;1.15;76.95
50484;BME280;36409;52.168;20.878;2023-12-22T12:05:18;96936.77;;;1.19;77.54
50484;BME280;36409;52.168;20.878;2023-12-22T12:08:08;96933.45;;;1.15;77.26
50484;BME280;36409;52.168;20.878;2023-12-22T12:10:56;96931.48;;;1.23;77.44
50484;BME280;36409;52.168;20.878;2023-12-22T12:13:29;96931.33;;;1.28;78.15
50484;BME280;36409;52.168;20.878;2023-12-22T12:16:00;96924.66;;;1.22;77.20
50484;BME280;36409;52.168;20.878;2023-12-22T12:18:31;96933.39;;;1.17;77.50
50484;BME280;36409;52.168;20.878;2023-12-22T12:21:04;96923.17;;;1.15;77.59
50484;BME280;36409;52.168;20.878;2023-12-22T12:23:35;96913.81;;;1.13;77.24
50484;BME280;36409;52.168;20.878;2023-12-22T12:26:08;96918.19;;;1.11;78.35
50484;BME280;36409;52.168;20.878;2023-12-22T12:28:42;96921.72;;;1.06;77.79
50484;BME280;36409;52.168;20.878;2023-12-22T12:31:13;96911.53;;;1.03;77.61
50484;BME280;36409;52.168;20.878;2023-12-22T12:33:43;96919.30;;;1.02;77.86
50484;BME280;36409;52.168;20.878;2023-12-22T12:36:24;96914.25;;;0.99;77.62
50484;BME280;36409;52.168;20.878;2023-12-22T12:39:01;96915.25;;;0.95;78.54
50484;BME280;36409;52.168;20.878;2023-12-22T12:41:43;96915.33;;;0.91;78.58
50484;BME280;36409;52.168;20.878;2023-12-22T12:44:17;96923.98;;;0.89;77.78
50484;BME280;36409;52.168;20.878;2023-12-22T12:46:48;96918.84;;;0.89;78.29
50484;BME280;36409;52.168;20.878;2023-12-22T12:49:19;96938.67;;;0.84;77.65
50484;BME280;36409;52.168;20.878;2023-12-22T12:51:49;96933.67;;;0.79;77.72
50484;BME280;36409;52.168;20.878;2023-12-22T12:54:18;96933.81;;;0.74;78.36
50484;BME280;36409;52.168;20.878;2023-12-22T12:56:48;96938.20;;;0.71;78.06
50484;BME280;36409;52.168;20.878;2023-12-22T12:59:18;96937.45;;;0.67;78.37
50484;BME280;36409;52.168;20.878;2023-12-22T13:01:54;96919.56;;;0.64;77.93
50484;BME280;36409;52.168;20.878;2023-12-22T13:04:37;96924.84;;;0.59;78.43
50484;BME280;36409;52.168;20.878;2023-12-22T13:07:08;96912.97;;;0.55;78.06
50484;BME280;36409;52.168;20.878;2023-12-22T13:09:38;96916.47;;;0.53;77.95
50484;BME280;36409;52.168;20.878;2023-12-22T13:12:07;96907.03;;;0.53;78.83
50484;BME280;36409;52.168;20.878;2023-12-22T13:14:40;96906.23;;;0.51;78.93
50484;BME280;36409;52.168;20.878;2023-12-22T13:17:12;96908.84;;;0.50;79.10
50484;BME280;36409;52.168;20.878;2023-12-22T13:19:43;96897.78;;;0.48;78.55
50484;BME280;36409;52.168;20.878;2023-12-22T13:22:15;96897.78;;;0.48;78.49
50484;BME280;36409;52.168;20.878;2023-12-22T13:24:55;96899.55;;;0.45;79.34
50484;BME280;36409;52.168;20.878;2023-12-22T13:27:25;96896.21;;;0.43;79.26
50484;BME280;36409;52.168;20.878;2023-12-22T13:29:54;96894.52;;;0.42;79.46
50484;BME280;36409;52.168;20.878;2023-12-22T13:32:24;96898.77;;;0.43;78.67
50484;BME280;36409;52.168;20.878;2023-12-22T13:34:55;96891.10;;;0.42;78.62
50484;BME280;36409;52.168;20.878;2023-12-22T13:37:26;96889.42;;;0.41;78.67
50484;BME280;36409;52.168;20.878;2023-12-22T13:40:01;96892.86;;;0.40;79.50
50484;BME280;36409;52.168;20.878;2023-12-22T13:42:43;96885.22;;;0.38;79.41
50484;BME280;36409;52.168;20.878;2023-12-22T13:45:16;96891.23;;;0.37;79.28
50484;BME280;36409;52.168;20.878;2023-12-22T13:47:50;96890.41;;;0.37;79.64
50484;BME280;36409;52.168;20.878;2023-12-22T13:50:25;96892.12;;;0.36;79.82
50484;BME280;36409;52.168;20.878;2023-12-22T13:52:55;96885.30;;;0.35;78.87
50484;BME280;36409;52.168;20.878;2023-12-22T13:55:24;96889.66;;;0.33;79.77
50484;BME280;36409;52.168;20.878;2023-12-22T13:58:00;96876.83;;;0.33;79.03
50484;BME280;36409;52.168;20.878;2023-12-22T14:00:30;96869.16;;;0.32;78.98
50484;BME280;36409;52.168;20.878;2023-12-22T14:03:01;96866.59;;;0.32;79.53
50484;BME280;36409;52.168;20.878;2023-12-22T14:05:31;96866.65;;;0.30;79.80
50484;BME280;36409;52.168;20.878;2023-12-22T14:08:04;96854.70;;;0.29;79.74